sensor_id;sensor_type;location;lat;lon;timestamp;P1;durP1;ratioP1;P2;durP2;ratioP2
3066;SDS011;1544;48.834;9.194;2022-12-26T00:00:46;2.33;;;1.93;;
3066;SDS011;1544;48.834;9.194;2022-12-26T00:03:21;3.20;;;2.23;;
3066;SDS011;1544;48.834;9.194;2022-12-26T00:05:57;1.97;;;1.77;;
3066;SDS011;1544;48.834;9.194;2022-12-26T00:08:32;2.17;;;1.90;;
3066;SDS011;1544;48.834;9.194;2022-12-26T00:11:07;1.90;;;1.40;;
3066;SDS011;1544;48.834;9.194;2022-12-26T00:13:43;1.73;;;1.63;;
3066;SDS011;1544;48.834;9.194;2022-12-26T00:16:19;1.70;;;1.53;;
3066;SDS011;1544;48.834;9.194;2022-12-26T00:18:55;1.40;;;1.30;;
3066;SDS011;1544;48.834;9.194;2022-12-26T00:21:30;1.60;;;1.50;;
3066;SDS011;1544;48.834;9.194;2022-12-26T00:24:05;2.03;;;1.83;;
3066;SDS011;1544;48.834;9.194;2022-12-26T00:26:40;2.00;;;1.60;;
3066;SDS011;1544;48.834;9.194;2022-12-26T00:29:15;1.60;;;1.50;;
3066;SDS011;1544;48.834;9.194;2022-12-26T00:31:50;1.60;;;1.50;;
3066;SDS011;1544;48.834;9.194;2022-12-26T00:34:25;1.77;;;1.67;;
3066;SDS011;1544;48.834;9.194;2022-12-26T00:37:00;1.60;;;1.50;;
3066;SDS011;1544;48.834;9.194;2022-12-26T00:39:35;1.97;;;1.73;;
3066;SDS011;1544;48.834;9.194;2022-12-26T00:42:10;3.00;;;1.67;;
3066;SDS011;1544;48.834;9.194;2022-12-26T00:44:44;2.00;;;1.60;;
3066;SDS011;1544;48.834;9.194;2022-12-26T00:47:19;1.80;;;1.70;;
3066;SDS011;1544;48.834;9.194;2022-12-26T00:49:54;3.13;;;1.70;;
3066;SDS011;1544;48.834;9.194;2022-12-26T00:52:48;1.90;;;1.80;;
3066;SDS011;1544;48.834;9.194;2022-12-26T00:55:23;1.57;;;1.47;;
3066;SDS011;1544;48.834;9.194;2022-12-26T00:57:58;2.17;;;1.90;;
3066;SDS011;1544;48.834;9.194;2022-12-26T01:00:32;1.60;;;1.50;;
3066;SDS011;1544;48.834;9.194;2022-12-26T01:03:08;1.83;;;1.73;;
3066;SDS011;1544;48.834;9.194;2022-12-26T01:05:46;2.20;;;2.00;;
3066;SDS011;1544;48.834;9.194;2022-12-26T01:08:23;1.90;;;1.80;;
3066;SDS011;1544;48.834;9.194;2022-12-26T01:11:01;1.90;;;1.80;;
3066;SDS011;1544;48.834;9.194;2022-12-26T01:13:42;2.20;;;1.60;;
3066;SDS011;1544;48.834;9.194;2022-12-26T01:16:17;1.70;;;1.60;;
3066;SDS011;1544;48.834;9.194;2022-12-26T01:18:52;1.80;;;1.50;;
3066;SDS011;1544;48.834;9.194;2022-12-26T01:21:27;1.37;;;1.27;;
3066;SDS011;1544;48.834;9.194;2022-12-26T01:24:02;1.63;;;1.53;;
3066;SDS011;1544;48.834;9.194;2022-12-26T01:26:38;1.80;;;1.70;;
3066;SDS011;1544;48.834;9.194;2022-12-26T01:29:13;1.73;;;1.57;;
3066;SDS011;1544;48.834;9.194;2022-12-26T01:31:48;1.73;;;1.63;;
3066;SDS011;1544;48.834;9.194;2022-12-26T01:34:23;1.60;;;1.50;;
3066;SDS011;1544;48.834;9.194;2022-12-26T01:36:58;2.20;;;1.73;;
3066;SDS011;1544;48.834;9.194;2022-12-26T01:39:33;2.13;;;1.57;;
3066;SDS011;1544;48.834;9.194;2022-12-26T01:42:15;2.30;;;1.43;;
3066;SDS011;1544;48.834;9.194;2022-12-26T01:45:04;2.20;;;1.70;;
3066;SDS011;1544;48.834;9.194;2022-12-26T01:50:58;1.70;;;1.60;;
3066;SDS011;1544;48.834;9.194;2022-12-26T01:53:36;1.47;;;1.37;;
3066;SDS011;1544;48.834;9.194;2022-12-26T01:56:22;1.70;;;1.60;;
3066;SDS011;1544;48.834;9.194;2022-12-26T01:59:14;1.30;;;1.20;;
3066;SDS011;1544;48.834;9.194;2022-12-26T02:02:11;1.80;;;1.70;;
3066;SDS011;1544;48.834;9.194;2022-12-26T02:04:48;1.40;;;1.30;;
3066;SDS011;1544;48.834;9.194;2022-12-26T02:07:43;1.70;;;1.60;;
3066;SDS011;1544;48.834;9.194;2022-12-26T02:10:20;1.80;;;1.70;;
3066;SDS011;1544;48.834;9.194;2022-12-26T02:12:59;1.70;;;1.60;;
3066;SDS011;1544;48.834;9.194;2022-12-26T02:15:35;2.60;;;1.40;;
3066;SDS011;1544;48.834;9.194;2022-12-26T02:18:10;1.93;;;1.50;;
3066;SDS011;1544;48.834;9.194;2022-12-26T02:32:50;1.40;;;1.30;;
3066;SDS011;1544;48.834;9.194;2022-12-26T02:35:49;1.23;;;1.13;;
3066;SDS011;1544;48.834;9.194;2022-12-26T02:45:37;1.70;;;1.33;;
3066;SDS011;1544;48.834;9.194;2022-12-26T02:55:36;1.20;;;1.20;;
3066;SDS011;1544;48.834;9.194;2022-12-26T02:58:26;1.93;;;1.73;;
3066;SDS011;1544;48.834;9.194;2022-12-26T03:01:32;1.90;;;1.20;;
3066;SDS011;1544;48.834;9.194;2022-12-26T03:04:32;1.43;;;1.30;;
3066;SDS011;1544;48.834;9.194;2022-12-26T03:07:29;1.60;;;1.50;;
3066;SDS011;1544;48.834;9.194;2022-12-26T03:10:28;1.60;;;1.50;;
3066;SDS011;1544;48.834;9.194;2022-12-26T03:13:26;1.70;;;1.60;;
3066;SDS011;1544;48.834;9.194;2022-12-26T03:16:08;2.20;;;1.63;;
3066;SDS011;1544;48.834;9.194;2022-12-26T03:19:05;1.47;;;1.37;;
3066;SDS011;1544;48.834;9.194;2022-12-26T03:21:44;1.33;;;1.23;;
3066;SDS011;1544;48.834;9.194;2022-12-26T03:24:20;1.70;;;1.60;;
3066;SDS011;1544;48.834;9.194;2022-12-26T03:26:56;1.70;;;1.60;;
3066;SDS011;1544;48.834;9.194;2022-12-26T03:29:31;1.40;;;1.30;;
3066;SDS011;1544;48.834;9.194;2022-12-26T03:32:25;2.20;;;1.63;;
3066;SDS011;1544;48.834;9.194;2022-12-26T03:34:59;1.87;;;1.70;;
3066;SDS011;1544;48.834;9.194;2022-12-26T03:37:37;1.70;;;1.50;;
3066;SDS011;1544;48.834;9.194;2022-12-26T03:40:37;1.93;;;1.63;;
3066;SDS011;1544;48.834;9.194;2022-12-26T03:47:16;1.83;;;1.73;;
3066;SDS011;1544;48.834;9.194;2022-12-26T03:50:51;1.60;;;1.50;;
3066;SDS011;1544;48.834;9.194;2022-12-26T03:53:42;1.40;;;1.30;;
3066;SDS011;1544;48.834;9.194;2022-12-26T03:56:46;2.00;;;1.90;;
3066;SDS011;1544;48.834;9.194;2022-12-26T03:59:51;1.43;;;1.33;;
3066;SDS011;1544;48.834;9.194;2022-12-26T04:02:51;1.43;;;1.33;;
3066;SDS011;1544;48.834;9.194;2022-12-26T04:05:51;2.23;;;1.50;;
3066;SDS011;1544;48.834;9.194;2022-12-26T04:09:30;1.70;;;1.60;;
3066;SDS011;1544;48.834;9.194;2022-12-26T04:12:19;2.27;;;1.53;;
3066;SDS011;1544;48.834;9.194;2022-12-26T04:15:24;1.40;;;1.30;;
3066;SDS011;1544;48.834;9.194;2022-12-26T04:19:03;1.77;;;1.60;;
3066;SDS011;1544;48.834;9.194;2022-12-26T04:22:07;1.57;;;1.40;;
3066;SDS011;1544;48.834;9.194;2022-12-26T04:25:26;1.50;;;1.40;;
3066;SDS011;1544;48.834;9.194;2022-12-26T04:28:25;1.57;;;1.47;;
3066;SDS011;1544;48.834;9.194;2022-12-26T04:34:19;1.70;;;1.60;;
3066;SDS011;1544;48.834;9.194;2022-12-26T04:37:20;1.77;;;1.53;;
3066;SDS011;1544;48.834;9.194;2022-12-26T04:40:20;1.70;;;1.40;;
3066;SDS011;1544;48.834;9.194;2022-12-26T04:43:18;3.40;;;1.90;;
3066;SDS011;1544;48.834;9.194;2022-12-26T04:46:24;1.77;;;1.60;;
3066;SDS011;1544;48.834;9.194;2022-12-26T04:49:02;1.83;;;1.73;;
3066;SDS011;1544;48.834;9.194;2022-12-26T04:51:59;1.50;;;1.40;;
3066;SDS011;1544;48.834;9.194;2022-12-26T04:54:37;1.47;;;1.37;;
3066;SDS011;1544;48.834;9.194;2022-12-26T04:57:12;1.50;;;1.33;;
3066;SDS011;1544;48.834;9.194;2022-12-26T04:59:48;2.33;;;1.40;;
3066;SDS011;1544;48.834;9.194;2022-12-26T05:02:22;1.60;;;1.30;;
3066;SDS011;1544;48.834;9.194;2022-12-26T05:05:16;1.50;;;1.40;;
3066;SDS011;1544;48.834;9.194;2022-12-26T05:08:19;1.70;;;1.60;;
3066;SDS011;1544;48.834;9.194;2022-12-26T05:11:17;1.50;;;1.40;;
3066;SDS011;1544;48.834;9.194;2022-12-26T05:13:53;1.67;;;1.20;;
3066;SDS011;1544;48.834;9.194;2022-12-26T05:16:29;1.57;;;1.10;;
3066;SDS011;1544;48.834;9.194;2022-12-26T05:19:22;1.90;;;1.40;;
3066;SDS011;1544;48.834;9.194;2022-12-26T05:22:15;2.07;;;1.50;;
3066;SDS011;1544;48.834;9.194;2022-12-26T05:25:12;1.53;;;1.43;;
3066;SDS011;1544;48.834;9.194;2022-12-26T05:28:10;4.47;;;1.70;;
3066;SDS011;1544;48.834;9.194;2022-12-26T05:31:05;1.80;;;1.70;;
3066;SDS011;1544;48.834;9.194;2022-12-26T05:33:40;2.40;;;1.50;;
3066;SDS011;1544;48.834;9.194;2022-12-26T05:36:38;2.50;;;1.43;;
3066;SDS011;1544;48.834;9.194;2022-12-26T05:39:21;1.40;;;1.30;;
3066;SDS011;1544;48.834;9.194;2022-12-26T05:41:56;1.50;;;1.40;;
3066;SDS011;1544;48.834;9.194;2022-12-26T05:44:31;1.50;;;1.40;;
3066;SDS011;1544;48.834;9.194;2022-12-26T05:47:06;1.40;;;1.30;;
3066;SDS011;1544;48.834;9.194;2022-12-26T05:49:41;1.50;;;1.37;;
3066;SDS011;1544;48.834;9.194;2022-12-26T05:52:16;1.73;;;1.63;;
3066;SDS011;1544;48.834;9.194;2022-12-26T05:54:51;1.43;;;1.33;;
3066;SDS011;1544;48.834;9.194;2022-12-26T05:57:26;1.40;;;1.30;;
3066;SDS011;1544;48.834;9.194;2022-12-26T06:00:01;1.47;;;1.37;;
3066;SDS011;1544;48.834;9.194;2022-12-26T06:02:37;2.97;;;1.50;;
3066;SDS011;1544;48.834;9.194;2022-12-26T06:05:12;2.50;;;1.30;;
3066;SDS011;1544;48.834;9.194;2022-12-26T06:07:47;1.93;;;1.60;;
3066;SDS011;1544;48.834;9.194;2022-12-26T06:10:22;1.90;;;1.50;;
3066;SDS011;1544;48.834;9.194;2022-12-26T06:13:00;1.43;;;1.33;;
3066;SDS011;1544;48.834;9.194;2022-12-26T06:15:36;1.53;;;1.43;;
3066;SDS011;1544;48.834;9.194;2022-12-26T06:18:12;1.47;;;1.37;;
3066;SDS011;1544;48.834;9.194;2022-12-26T06:20:47;1.50;;;1.40;;
3066;SDS011;1544;48.834;9.194;2022-12-26T06:23:22;2.20;;;1.30;;
3066;SDS011;1544;48.834;9.194;2022-12-26T06:25:56;1.37;;;1.27;;
3066;SDS011;1544;48.834;9.194;2022-12-26T06:28:32;1.30;;;1.20;;
3066;SDS011;1544;48.834;9.194;2022-12-26T06:31:09;1.43;;;1.33;;
3066;SDS011;1544;48.834;9.194;2022-12-26T06:33:54;1.50;;;1.40;;
3066;SDS011;1544;48.834;9.194;2022-12-26T06:36:35;1.33;;;1.23;;
3066;SDS011;1544;48.834;9.194;2022-12-26T06:39:10;1.30;;;1.20;;
3066;SDS011;1544;48.834;9.194;2022-12-26T06:41:45;2.23;;;1.20;;
3066;SDS011;1544;48.834;9.194;2022-12-26T06:44:20;1.77;;;1.67;;
3066;SDS011;1544;48.834;9.194;2022-12-26T06:46:55;3.57;;;1.57;;
3066;SDS011;1544;48.834;9.194;2022-12-26T06:49:30;1.50;;;1.30;;
3066;SDS011;1544;48.834;9.194;2022-12-26T06:52:06;2.37;;;1.80;;
3066;SDS011;1544;48.834;9.194;2022-12-26T06:54:41;1.63;;;1.53;;
3066;SDS011;1544;48.834;9.194;2022-12-26T06:57:17;1.83;;;1.40;;
3066;SDS011;1544;48.834;9.194;2022-12-26T06:59:52;1.83;;;1.73;;
3066;SDS011;1544;48.834;9.194;2022-12-26T07:02:27;1.77;;;1.50;;
3066;SDS011;1544;48.834;9.194;2022-12-26T07:05:02;2.03;;;1.60;;
3066;SDS011;1544;48.834;9.194;2022-12-26T07:07:37;1.80;;;1.70;;
3066;SDS011;1544;48.834;9.194;2022-12-26T07:10:12;2.27;;;2.13;;
3066;SDS011;1544;48.834;9.194;2022-12-26T07:12:47;2.53;;;2.03;;
3066;SDS011;1544;48.834;9.194;2022-12-26T07:15:22;1.90;;;1.80;;
3066;SDS011;1544;48.834;9.194;2022-12-26T07:17:57;1.90;;;1.60;;
3066;SDS011;1544;48.834;9.194;2022-12-26T07:20:32;1.87;;;1.77;;
3066;SDS011;1544;48.834;9.194;2022-12-26T07:23:07;1.80;;;1.70;;
3066;SDS011;1544;48.834;9.194;2022-12-26T07:25:42;1.90;;;1.80;;
3066;SDS011;1544;48.834;9.194;2022-12-26T07:28:16;1.77;;;1.67;;
3066;SDS011;1544;48.834;9.194;2022-12-26T07:30:51;2.00;;;1.90;;
3066;SDS011;1544;48.834;9.194;2022-12-26T07:33:27;4.30;;;2.00;;
3066;SDS011;1544;48.834;9.194;2022-12-26T07:36:03;1.67;;;1.57;;
3066;SDS011;1544;48.834;9.194;2022-12-26T07:38:39;1.60;;;1.50;;
3066;SDS011;1544;48.834;9.194;2022-12-26T07:41:14;1.97;;;1.50;;
3066;SDS011;1544;48.834;9.194;2022-12-26T07:44:11;1.33;;;1.27;;
3066;SDS011;1544;48.834;9.194;2022-12-26T07:46:46;1.70;;;1.60;;
3066;SDS011;1544;48.834;9.194;2022-12-26T07:49:21;1.50;;;1.40;;
3066;SDS011;1544;48.834;9.194;2022-12-26T07:51:56;1.30;;;1.20;;
3066;SDS011;1544;48.834;9.194;2022-12-26T07:54:31;1.70;;;1.60;;
3066;SDS011;1544;48.834;9.194;2022-12-26T07:57:06;1.70;;;1.60;;
3066;SDS011;1544;48.834;9.194;2022-12-26T08:00:03;2.30;;;1.70;;
3066;SDS011;1544;48.834;9.194;2022-12-26T08:02:48;3.40;;;1.50;;
3066;SDS011;1544;48.834;9.194;2022-12-26T08:05:26;1.50;;;1.40;;
3066;SDS011;1544;48.834;9.194;2022-12-26T08:08:01;2.80;;;1.70;;
3066;SDS011;1544;48.834;9.194;2022-12-26T08:10:36;1.70;;;1.60;;
3066;SDS011;1544;48.834;9.194;2022-12-26T08:13:11;2.43;;;1.90;;
3066;SDS011;1544;48.834;9.194;2022-12-26T08:15:46;2.73;;;1.30;;
3066;SDS011;1544;48.834;9.194;2022-12-26T08:18:22;2.00;;;1.80;;
3066;SDS011;1544;48.834;9.194;2022-12-26T08:20:58;2.63;;;1.60;;
3066;SDS011;1544;48.834;9.194;2022-12-26T08:23:34;2.63;;;1.60;;
3066;SDS011;1544;48.834;9.194;2022-12-26T08:26:10;1.70;;;1.60;;
3066;SDS011;1544;48.834;9.194;2022-12-26T08:28:49;2.00;;;1.80;;
3066;SDS011;1544;48.834;9.194;2022-12-26T08:31:24;2.60;;;2.40;;
3066;SDS011;1544;48.834;9.194;2022-12-26T08:34:04;2.10;;;2.00;;
3066;SDS011;1544;48.834;9.194;2022-12-26T08:36:39;2.30;;;2.10;;
3066;SDS011;1544;48.834;9.194;2022-12-26T08:39:14;2.03;;;1.83;;
3066;SDS011;1544;48.834;9.194;2022-12-26T08:41:49;3.90;;;2.50;;
3066;SDS011;1544;48.834;9.194;2022-12-26T08:44:24;2.67;;;2.20;;
3066;SDS011;1544;48.834;9.194;2022-12-26T08:47:01;2.40;;;2.20;;
3066;SDS011;1544;48.834;9.194;2022-12-26T08:49:36;2.77;;;2.27;;
3066;SDS011;1544;48.834;9.194;2022-12-26T08:52:11;2.00;;;1.90;;
3066;SDS011;1544;48.834;9.194;2022-12-26T08:54:46;2.27;;;1.83;;
3066;SDS011;1544;48.834;9.194;2022-12-26T08:57:21;2.40;;;2.20;;
3066;SDS011;1544;48.834;9.194;2022-12-26T08:59:56;3.30;;;3.10;;
3066;SDS011;1544;48.834;9.194;2022-12-26T09:02:32;3.50;;;3.20;;
3066;SDS011;1544;48.834;9.194;2022-12-26T09:05:07;2.47;;;2.27;;
3066;SDS011;1544;48.834;9.194;2022-12-26T09:07:42;2.30;;;2.10;;
3066;SDS011;1544;48.834;9.194;2022-12-26T09:10:17;2.27;;;2.07;;
3066;SDS011;1544;48.834;9.194;2022-12-26T09:12:52;2.57;;;2.37;;
3066;SDS011;1544;48.834;9.194;2022-12-26T09:15:27;2.47;;;2.27;;
3066;SDS011;1544;48.834;9.194;2022-12-26T09:18:02;2.47;;;2.27;;
3066;SDS011;1544;48.834;9.194;2022-12-26T09:20:37;2.03;;;1.93;;
3066;SDS011;1544;48.834;9.194;2022-12-26T09:23:11;3.60;;;2.57;;
3066;SDS011;1544;48.834;9.194;2022-12-26T09:25:48;2.43;;;2.23;;
3066;SDS011;1544;48.834;9.194;2022-12-26T09:28:23;2.53;;;2.33;;
3066;SDS011;1544;48.834;9.194;2022-12-26T09:31:05;2.83;;;2.47;;
3066;SDS011;1544;48.834;9.194;2022-12-26T09:33:44;2.57;;;2.27;;
3066;SDS011;1544;48.834;9.194;2022-12-26T09:36:22;4.20;;;3.80;;
3066;SDS011;1544;48.834;9.194;2022-12-26T09:39:04;3.90;;;3.33;;
3066;SDS011;1544;48.834;9.194;2022-12-26T09:42:01;3.83;;;2.13;;
3066;SDS011;1544;48.834;9.194;2022-12-26T09:45:01;3.53;;;3.03;;
3066;SDS011;1544;48.834;9.194;2022-12-26T09:48:18;4.33;;;3.60;;
3066;SDS011;1544;48.834;9.194;2022-12-26T09:51:19;5.30;;;3.57;;
3066;SDS011;1544;48.834;9.194;2022-12-26T09:53:54;4.30;;;3.90;;
3066;SDS011;1544;48.834;9.194;2022-12-26T09:56:30;3.13;;;2.83;;
3066;SDS011;1544;48.834;9.194;2022-12-26T09:59:31;3.50;;;2.90;;
3066;SDS011;1544;48.834;9.194;2022-12-26T10:02:20;4.40;;;3.80;;
3066;SDS011;1544;48.834;9.194;2022-12-26T10:04:57;3.50;;;3.30;;
3066;SDS011;1544;48.834;9.194;2022-12-26T10:13:06;3.63;;;3.20;;
3066;SDS011;1544;48.834;9.194;2022-12-26T10:16:14;4.10;;;3.00;;
3066;SDS011;1544;48.834;9.194;2022-12-26T10:19:28;4.70;;;3.20;;
3066;SDS011;1544;48.834;9.194;2022-12-26T10:23:32;4.53;;;2.80;;
3066;SDS011;1544;48.834;9.194;2022-12-26T10:26:21;3.10;;;2.10;;
3066;SDS011;1544;48.834;9.194;2022-12-26T10:29:13;3.03;;;2.83;;
3066;SDS011;1544;48.834;9.194;2022-12-26T10:32:05;4.20;;;3.47;;
3066;SDS011;1544;48.834;9.194;2022-12-26T10:34:48;3.00;;;2.80;;
3066;SDS011;1544;48.834;9.194;2022-12-26T10:37:24;3.30;;;3.00;;
3066;SDS011;1544;48.834;9.194;2022-12-26T10:42:53;4.60;;;3.03;;
3066;SDS011;1544;48.834;9.194;2022-12-26T10:45:36;3.20;;;2.90;;
3066;SDS011;1544;48.834;9.194;2022-12-26T10:48:31;2.53;;;2.33;;
3066;SDS011;1544;48.834;9.194;2022-12-26T10:51:06;3.30;;;2.20;;
3066;SDS011;1544;48.834;9.194;2022-12-26T10:53:44;2.03;;;1.70;;
3066;SDS011;1544;48.834;9.194;2022-12-26T10:56:23;2.07;;;1.90;;
3066;SDS011;1544;48.834;9.194;2022-12-26T10:59:01;1.77;;;1.67;;
3066;SDS011;1544;48.834;9.194;2022-12-26T11:01:38;1.90;;;1.80;;
3066;SDS011;1544;48.834;9.194;2022-12-26T11:04:21;1.60;;;1.50;;
3066;SDS011;1544;48.834;9.194;2022-12-26T11:07:18;2.30;;;2.10;;
3066;SDS011;1544;48.834;9.194;2022-12-26T11:09:53;1.70;;;1.60;;
3066;SDS011;1544;48.834;9.194;2022-12-26T11:12:36;1.67;;;1.40;;
3066;SDS011;1544;48.834;9.194;2022-12-26T11:18:19;1.50;;;1.40;;
3066;SDS011;1544;48.834;9.194;2022-12-26T11:21:22;2.40;;;1.30;;
3066;SDS011;1544;48.834;9.194;2022-12-26T11:26:42;1.30;;;1.20;;
3066;SDS011;1544;48.834;9.194;2022-12-26T11:29:18;1.27;;;1.17;;
3066;SDS011;1544;48.834;9.194;2022-12-26T11:31:55;1.67;;;1.10;;
3066;SDS011;1544;48.834;9.194;2022-12-26T11:34:39;1.13;;;1.03;;
3066;SDS011;1544;48.834;9.194;2022-12-26T11:37:28;1.47;;;1.20;;
3066;SDS011;1544;48.834;9.194;2022-12-26T11:40:15;0.90;;;0.90;;
3066;SDS011;1544;48.834;9.194;2022-12-26T11:42:54;1.37;;;1.23;;
3066;SDS011;1544;48.834;9.194;2022-12-26T11:45:40;1.10;;;1.00;;
3066;SDS011;1544;48.834;9.194;2022-12-26T11:48:20;1.10;;;1.00;;
3066;SDS011;1544;48.834;9.194;2022-12-26T11:50:58;1.00;;;0.90;;
3066;SDS011;1544;48.834;9.194;2022-12-26T11:53:33;1.07;;;0.90;;
3066;SDS011;1544;48.834;9.194;2022-12-26T11:56:10;1.80;;;0.83;;
3066;SDS011;1544;48.834;9.194;2022-12-26T11:58:45;1.43;;;0.80;;
3066;SDS011;1544;48.834;9.194;2022-12-26T12:01:19;1.30;;;0.83;;
3066;SDS011;1544;48.834;9.194;2022-12-26T12:03:55;1.80;;;0.90;;
3066;SDS011;1544;48.834;9.194;2022-12-26T12:12:52;0.80;;;0.80;;
3066;SDS011;1544;48.834;9.194;2022-12-26T12:18:31;1.10;;;0.70;;
3066;SDS011;1544;48.834;9.194;2022-12-26T12:21:44;0.60;;;0.60;;
3066;SDS011;1544;48.834;9.194;2022-12-26T12:35:03;0.70;;;0.57;;
3066;SDS011;1544;48.834;9.194;2022-12-26T12:41:21;0.60;;;0.50;;
3066;SDS011;1544;48.834;9.194;2022-12-26T12:57:14;0.70;;;0.60;;
3066;SDS011;1544;48.834;9.194;2022-12-26T13:00:17;0.60;;;0.60;;
3066;SDS011;1544;48.834;9.194;2022-12-26T13:03:00;0.60;;;0.60;;
3066;SDS011;1544;48.834;9.194;2022-12-26T13:06:10;0.50;;;0.50;;
3066;SDS011;1544;48.834;9.194;2022-12-26T13:11:43;0.60;;;0.60;;
3066;SDS011;1544;48.834;9.194;2022-12-26T13:14:39;0.90;;;0.60;;
3066;SDS011;1544;48.834;9.194;2022-12-26T13:17:44;0.60;;;0.60;;
3066;SDS011;1544;48.834;9.194;2022-12-26T13:23:26;0.80;;;0.70;;
3066;SDS011;1544;48.834;9.194;2022-12-26T13:26:33;0.80;;;0.60;;
3066;SDS011;1544;48.834;9.194;2022-12-26T13:29:17;0.60;;;0.60;;
3066;SDS011;1544;48.834;9.194;2022-12-26T13:34:57;1.00;;;0.60;;
3066;SDS011;1544;48.834;9.194;2022-12-26T13:40:16;0.60;;;0.60;;
3066;SDS011;1544;48.834;9.194;2022-12-26T13:42:54;1.37;;;0.50;;
3066;SDS011;1544;48.834;9.194;2022-12-26T13:45:55;0.50;;;0.50;;
3066;SDS011;1544;48.834;9.194;2022-12-26T13:51:07;0.60;;;0.60;;
3066;SDS011;1544;48.834;9.194;2022-12-26T13:54:22;0.50;;;0.50;;
3066;SDS011;1544;48.834;9.194;2022-12-26T13:57:06;0.70;;;0.50;;
3066;SDS011;1544;48.834;9.194;2022-12-26T14:00:39;0.80;;;0.80;;
3066;SDS011;1544;48.834;9.194;2022-12-26T14:06:12;0.60;;;0.60;;
3066;SDS011;1544;48.834;9.194;2022-12-26T14:22:00;0.60;;;0.60;;
3066;SDS011;1544;48.834;9.194;2022-12-26T14:25:07;0.50;;;0.50;;
3066;SDS011;1544;48.834;9.194;2022-12-26T14:28:00;0.60;;;0.60;;
3066;SDS011;1544;48.834;9.194;2022-12-26T14:31:03;0.60;;;0.60;;
3066;SDS011;1544;48.834;9.194;2022-12-26T14:34:23;0.53;;;0.53;;
3066;SDS011;1544;48.834;9.194;2022-12-26T14:40:28;0.60;;;0.60;;
3066;SDS011;1544;48.834;9.194;2022-12-26T14:43:22;1.40;;;0.80;;
3066;SDS011;1544;48.834;9.194;2022-12-26T14:49:21;0.70;;;0.70;;
3066;SDS011;1544;48.834;9.194;2022-12-26T14:54:57;0.80;;;0.80;;
3066;SDS011;1544;48.834;9.194;2022-12-26T14:57:42;0.60;;;0.60;;
3066;SDS011;1544;48.834;9.194;2022-12-26T15:05:38;3.03;;;0.80;;
3066;SDS011;1544;48.834;9.194;2022-12-26T15:08:34;4.33;;;0.70;;
3066;SDS011;1544;48.834;9.194;2022-12-26T15:11:47;0.80;;;0.80;;
3066;SDS011;1544;48.834;9.194;2022-12-26T15:21:10;1.00;;;0.80;;
3066;SDS011;1544;48.834;9.194;2022-12-26T15:37:17;0.80;;;0.80;;
3066;SDS011;1544;48.834;9.194;2022-12-26T15:40:13;0.70;;;0.70;;
3066;SDS011;1544;48.834;9.194;2022-12-26T15:49:27;0.80;;;0.80;;
3066;SDS011;1544;48.834;9.194;2022-12-26T15:52:11;1.63;;;0.80;;
3066;SDS011;1544;48.834;9.194;2022-12-26T15:55:21;0.97;;;0.80;;
3066;SDS011;1544;48.834;9.194;2022-12-26T15:58:23;1.10;;;0.80;;
3066;SDS011;1544;48.834;9.194;2022-12-26T16:01:10;1.60;;;0.90;;
3066;SDS011;1544;48.834;9.194;2022-12-26T16:03:49;0.90;;;0.90;;
3066;SDS011;1544;48.834;9.194;2022-12-26T16:06:39;1.10;;;1.00;;
3066;SDS011;1544;48.834;9.194;2022-12-26T16:12:28;0.77;;;0.77;;
3066;SDS011;1544;48.834;9.194;2022-12-26T16:17:44;1.00;;;0.90;;
3066;SDS011;1544;48.834;9.194;2022-12-26T16:23:16;3.30;;;1.00;;
3066;SDS011;1544;48.834;9.194;2022-12-26T16:25:55;1.10;;;1.00;;
3066;SDS011;1544;48.834;9.194;2022-12-26T16:28:40;0.83;;;0.80;;
3066;SDS011;1544;48.834;9.194;2022-12-26T16:31:18;1.37;;;0.97;;
3066;SDS011;1544;48.834;9.194;2022-12-26T16:33:58;0.70;;;0.70;;
3066;SDS011;1544;48.834;9.194;2022-12-26T16:36:33;1.00;;;0.90;;
3066;SDS011;1544;48.834;9.194;2022-12-26T16:39:10;1.60;;;1.20;;
3066;SDS011;1544;48.834;9.194;2022-12-26T16:41:56;1.00;;;0.80;;
3066;SDS011;1544;48.834;9.194;2022-12-26T16:44:39;0.87;;;0.83;;
3066;SDS011;1544;48.834;9.194;2022-12-26T16:47:16;0.97;;;0.90;;
3066;SDS011;1544;48.834;9.194;2022-12-26T16:49:51;0.70;;;0.70;;
3066;SDS011;1544;48.834;9.194;2022-12-26T16:52:28;1.10;;;0.80;;
3066;SDS011;1544;48.834;9.194;2022-12-26T16:55:24;1.10;;;1.00;;
3066;SDS011;1544;48.834;9.194;2022-12-26T16:58:12;1.50;;;1.40;;
3066;SDS011;1544;48.834;9.194;2022-12-26T17:03:46;1.37;;;1.10;;
3066;SDS011;1544;48.834;9.194;2022-12-26T17:06:34;2.57;;;1.40;;
3066;SDS011;1544;48.834;9.194;2022-12-26T17:09:14;1.40;;;1.23;;
3066;SDS011;1544;48.834;9.194;2022-12-26T17:11:52;1.90;;;1.40;;
3066;SDS011;1544;48.834;9.194;2022-12-26T17:14:37;1.50;;;1.40;;
3066;SDS011;1544;48.834;9.194;2022-12-26T17:19:57;2.50;;;1.60;;
3066;SDS011;1544;48.834;9.194;2022-12-26T17:22:55;1.30;;;1.20;;
3066;SDS011;1544;48.834;9.194;2022-12-26T17:25:31;1.30;;;1.20;;
3066;SDS011;1544;48.834;9.194;2022-12-26T17:30:42;2.03;;;1.33;;
3066;SDS011;1544;48.834;9.194;2022-12-26T17:33:26;1.50;;;1.40;;
3066;SDS011;1544;48.834;9.194;2022-12-26T17:36:03;1.90;;;1.40;;
3066;SDS011;1544;48.834;9.194;2022-12-26T17:39:11;1.33;;;1.23;;
3066;SDS011;1544;48.834;9.194;2022-12-26T17:41:56;1.80;;;1.30;;
3066;SDS011;1544;48.834;9.194;2022-12-26T17:49:57;1.70;;;1.43;;
3066;SDS011;1544;48.834;9.194;2022-12-26T17:52:32;2.00;;;1.50;;
3066;SDS011;1544;48.834;9.194;2022-12-26T17:55:18;4.37;;;3.57;;
3066;SDS011;1544;48.834;9.194;2022-12-26T17:57:58;3.10;;;2.80;;
3066;SDS011;1544;48.834;9.194;2022-12-26T18:00:33;2.67;;;2.47;;
3066;SDS011;1544;48.834;9.194;2022-12-26T18:03:10;3.30;;;2.47;;
3066;SDS011;1544;48.834;9.194;2022-12-26T18:05:46;2.03;;;1.73;;
3066;SDS011;1544;48.834;9.194;2022-12-26T18:08:28;2.07;;;1.80;;
3066;SDS011;1544;48.834;9.194;2022-12-26T18:11:11;1.60;;;1.50;;
3066;SDS011;1544;48.834;9.194;2022-12-26T18:13:47;1.80;;;1.70;;
3066;SDS011;1544;48.834;9.194;2022-12-26T18:16:22;2.30;;;1.37;;
3066;SDS011;1544;48.834;9.194;2022-12-26T18:19:01;2.13;;;1.70;;
3066;SDS011;1544;48.834;9.194;2022-12-26T18:21:36;3.37;;;1.73;;
3066;SDS011;1544;48.834;9.194;2022-12-26T18:24:11;1.60;;;1.50;;
3066;SDS011;1544;48.834;9.194;2022-12-26T18:26:46;2.00;;;1.63;;
3066;SDS011;1544;48.834;9.194;2022-12-26T18:29:22;2.63;;;1.33;;
3066;SDS011;1544;48.834;9.194;2022-12-26T18:31:57;1.30;;;1.20;;
3066;SDS011;1544;48.834;9.194;2022-12-26T18:34:33;2.97;;;0.83;;
3066;SDS011;1544;48.834;9.194;2022-12-26T18:37:09;1.00;;;0.80;;
3066;SDS011;1544;48.834;9.194;2022-12-26T18:39:45;0.93;;;0.80;;
3066;SDS011;1544;48.834;9.194;2022-12-26T18:42:20;0.90;;;0.70;;
3066;SDS011;1544;48.834;9.194;2022-12-26T18:44:55;0.60;;;0.60;;
3066;SDS011;1544;48.834;9.194;2022-12-26T18:47:30;0.50;;;0.50;;
3066;SDS011;1544;48.834;9.194;2022-12-26T18:50:09;1.87;;;0.60;;
3066;SDS011;1544;48.834;9.194;2022-12-26T18:52:46;0.73;;;0.50;;
3066;SDS011;1544;48.834;9.194;2022-12-26T18:55:27;0.70;;;0.70;;
3066;SDS011;1544;48.834;9.194;2022-12-26T18:58:02;0.90;;;0.60;;
3066;SDS011;1544;48.834;9.194;2022-12-26T19:00:37;0.70;;;0.70;;
3066;SDS011;1544;48.834;9.194;2022-12-26T19:03:12;0.87;;;0.50;;
3066;SDS011;1544;48.834;9.194;2022-12-26T19:05:47;1.17;;;0.60;;
3066;SDS011;1544;48.834;9.194;2022-12-26T19:08:22;0.50;;;0.50;;
3066;SDS011;1544;48.834;9.194;2022-12-26T19:10:57;2.37;;;0.60;;
3066;SDS011;1544;48.834;9.194;2022-12-26T19:13:32;1.73;;;0.70;;
3066;SDS011;1544;48.834;9.194;2022-12-26T19:16:09;1.13;;;0.70;;
3066;SDS011;1544;48.834;9.194;2022-12-26T19:18:45;0.90;;;0.43;;
3066;SDS011;1544;48.834;9.194;2022-12-26T19:21:20;0.60;;;0.60;;
3066;SDS011;1544;48.834;9.194;2022-12-26T19:23:55;1.27;;;0.57;;
3066;SDS011;1544;48.834;9.194;2022-12-26T19:26:30;3.17;;;0.70;;
3066;SDS011;1544;48.834;9.194;2022-12-26T19:29:05;0.50;;;0.50;;
3066;SDS011;1544;48.834;9.194;2022-12-26T19:31:40;1.47;;;0.60;;
3066;SDS011;1544;48.834;9.194;2022-12-26T19:34:15;0.77;;;0.70;;
3066;SDS011;1544;48.834;9.194;2022-12-26T19:36:50;0.70;;;0.70;;
3066;SDS011;1544;48.834;9.194;2022-12-26T19:39:25;2.40;;;1.50;;
3066;SDS011;1544;48.834;9.194;2022-12-26T19:42:00;0.90;;;0.90;;
3066;SDS011;1544;48.834;9.194;2022-12-26T19:44:35;0.67;;;0.67;;
3066;SDS011;1544;48.834;9.194;2022-12-26T19:47:10;0.87;;;0.80;;
3066;SDS011;1544;48.834;9.194;2022-12-26T19:49:46;0.90;;;0.60;;
3066;SDS011;1544;48.834;9.194;2022-12-26T19:52:21;1.00;;;0.90;;